sensor_id;sensor_type;location;lat;lon;timestamp;P1;durP1;ratioP1;P2;durP2;ratioP2
69835;SDS011;57132;51.972;4.450;2023-03-21T00:01:48;61.53;;;30.40;;
69835;SDS011;57132;51.972;4.450;2023-03-21T00:04:15;59.42;;;27.92;;
69835;SDS011;57132;51.972;4.450;2023-03-21T00:06:41;65.18;;;28.58;;
69835;SDS011;57132;51.972;4.450;2023-03-21T00:09:07;62.90;;;30.13;;
69835;SDS011;57132;51.972;4.450;2023-03-21T00:11:34;60.05;;;31.05;;
69835;SDS011;57132;51.972;4.450;2023-03-21T00:13:59;62.65;;;30.73;;
69835;SDS011;57132;51.972;4.450;2023-03-21T00:16:26;64.05;;;31.05;;
69835;SDS011;57132;51.972;4.450;2023-03-21T00:18:54;70.03;;;31.85;;
69835;SDS011;57132;51.972;4.450;2023-03-21T00:21:21;73.63;;;34.17;;
69835;SDS011;57132;51.972;4.450;2023-03-21T00:23:56;77.20;;;34.33;;
69835;SDS011;57132;51.972;4.450;2023-03-21T00:26:22;77.45;;;35.78;;
69835;SDS011;57132;51.972;4.450;2023-03-21T00:28:48;81.63;;;32.88;;
69835;SDS011;57132;51.972;4.450;2023-03-21T00:31:14;86.88;;;36.55;;
69835;SDS011;57132;51.972;4.450;2023-03-21T00:33:39;78.85;;;33.90;;
69835;SDS011;57132;51.972;4.450;2023-03-21T00:36:05;87.78;;;38.47;;
69835;SDS011;57132;51.972;4.450;2023-03-21T00:38:31;86.45;;;34.58;;
69835;SDS011;57132;51.972;4.450;2023-03-21T00:40:58;81.45;;;35.05;;
69835;SDS011;57132;51.972;4.450;2023-03-21T00:43:23;85.20;;;35.45;;
69835;SDS011;57132;51.972;4.450;2023-03-21T00:45:54;82.57;;;35.88;;
69835;SDS011;57132;51.972;4.450;2023-03-21T00:48:20;83.68;;;34.08;;
69835;SDS011;57132;51.972;4.450;2023-03-21T00:50:46;79.60;;;35.85;;
69835;SDS011;57132;51.972;4.450;2023-03-21T00:53:12;88.18;;;37.75;;
69835;SDS011;57132;51.972;4.450;2023-03-21T00:55:38;98.47;;;37.85;;
69835;SDS011;57132;51.972;4.450;2023-03-21T00:58:04;95.25;;;37.78;;
69835;SDS011;57132;51.972;4.450;2023-03-21T01:00:30;98.72;;;38.25;;
69835;SDS011;57132;51.972;4.450;2023-03-21T01:02:57;103.45;;;39.30;;
69835;SDS011;57132;51.972;4.450;2023-03-21T01:05:29;86.60;;;33.65;;
69835;SDS011;57132;51.972;4.450;2023-03-21T01:08:16;83.57;;;33.95;;
69835;SDS011;57132;51.972;4.450;2023-03-21T01:10:47;80.57;;;33.05;;
69835;SDS011;57132;51.972;4.450;2023-03-21T01:13:14;76.68;;;31.40;;
69835;SDS011;57132;51.972;4.450;2023-03-21T01:15:42;71.10;;;30.60;;
69835;SDS011;57132;51.972;4.450;2023-03-21T01:18:10;68.75;;;29.63;;
69835;SDS011;57132;51.972;4.450;2023-03-21T01:20:36;72.22;;;29.73;;
69835;SDS011;57132;51.972;4.450;2023-03-21T01:23:04;68.05;;;30.25;;
69835;SDS011;57132;51.972;4.450;2023-03-21T01:25:29;64.38;;;29.10;;
69835;SDS011;57132;51.972;4.450;2023-03-21T01:27:54;64.38;;;27.23;;
69835;SDS011;57132;51.972;4.450;2023-03-21T01:30:20;60.40;;;24.88;;
69835;SDS011;57132;51.972;4.450;2023-03-21T01:32:45;50.85;;;23.30;;
69835;SDS011;57132;51.972;4.450;2023-03-21T01:35:11;51.50;;;22.63;;
69835;SDS011;57132;51.972;4.450;2023-03-21T01:37:36;54.75;;;23.13;;
69835;SDS011;57132;51.972;4.450;2023-03-21T01:40:02;46.20;;;21.38;;
69835;SDS011;57132;51.972;4.450;2023-03-21T01:42:29;48.60;;;21.52;;
69835;SDS011;57132;51.972;4.450;2023-03-21T01:45:03;41.90;;;18.90;;
69835;SDS011;57132;51.972;4.450;2023-03-21T01:47:49;41.17;;;16.63;;
69835;SDS011;57132;51.972;4.450;2023-03-21T01:50:14;37.95;;;17.52;;
69835;SDS011;57132;51.972;4.450;2023-03-21T01:52:41;43.03;;;17.80;;
69835;SDS011;57132;51.972;4.450;2023-03-21T01:55:07;40.47;;;17.52;;
69835;SDS011;57132;51.972;4.450;2023-03-21T01:57:40;34.53;;;17.98;;
69835;SDS011;57132;51.972;4.450;2023-03-21T02:00:10;41.45;;;18.70;;
69835;SDS011;57132;51.972;4.450;2023-03-21T02:02:38;41.60;;;18.70;;
69835;SDS011;57132;51.972;4.450;2023-03-21T02:05:15;38.17;;;19.58;;
69835;SDS011;57132;51.972;4.450;2023-03-21T02:07:44;34.72;;;19.55;;
69835;SDS011;57132;51.972;4.450;2023-03-21T02:10:11;38.25;;;18.98;;
69835;SDS011;57132;51.972;4.450;2023-03-21T02:12:39;45.72;;;19.17;;
69835;SDS011;57132;51.972;4.450;2023-03-21T02:15:05;40.45;;;19.73;;
69835;SDS011;57132;51.972;4.450;2023-03-21T02:28:31;56.35;;;20.33;;
69835;SDS011;57132;51.972;4.450;2023-03-21T02:46:52;47.53;;;21.10;;
69835;SDS011;57132;51.972;4.450;2023-03-21T02:51:54;45.10;;;20.35;;
69835;SDS011;57132;51.972;4.450;2023-03-21T02:54:23;51.75;;;22.42;;
69835;SDS011;57132;51.972;4.450;2023-03-21T02:56:50;51.10;;;22.77;;
69835;SDS011;57132;51.972;4.450;2023-03-21T02:59:20;51.90;;;20.88;;
69835;SDS011;57132;51.972;4.450;2023-03-21T03:01:49;50.20;;;21.40;;
69835;SDS011;57132;51.972;4.450;2023-03-21T03:04:20;52.92;;;23.63;;
69835;SDS011;57132;51.972;4.450;2023-03-21T03:12:37;53.63;;;23.48;;
69835;SDS011;57132;51.972;4.450;2023-03-21T03:15:19;56.22;;;23.65;;
69835;SDS011;57132;51.972;4.450;2023-03-21T03:18:31;54.83;;;23.65;;
69835;SDS011;57132;51.972;4.450;2023-03-21T03:20:52;57.28;;;24.73;;
69835;SDS011;57132;51.972;4.450;2023-03-21T03:23:27;53.58;;;24.63;;
69835;SDS011;57132;51.972;4.450;2023-03-21T03:26:19;49.90;;;22.83;;
69835;SDS011;57132;51.972;4.450;2023-03-21T03:28:53;51.17;;;21.90;;
69835;SDS011;57132;51.972;4.450;2023-03-21T03:31:27;54.05;;;23.48;;
69835;SDS011;57132;51.972;4.450;2023-03-21T03:33:58;52.10;;;21.25;;
69835;SDS011;57132;51.972;4.450;2023-03-21T03:36:29;58.53;;;22.77;;
69835;SDS011;57132;51.972;4.450;2023-03-21T03:39:00;41.70;;;18.85;;
69835;SDS011;57132;51.972;4.450;2023-03-21T03:41:28;46.58;;;21.40;;
69835;SDS011;57132;51.972;4.450;2023-03-21T03:43:58;50.25;;;19.95;;
69835;SDS011;57132;51.972;4.450;2023-03-21T03:46:29;48.75;;;19.85;;
69835;SDS011;57132;51.972;4.450;2023-03-21T03:49:08;38.87;;;19.53;;
69835;SDS011;57132;51.972;4.450;2023-03-21T03:52:26;45.10;;;17.77;;
69835;SDS011;57132;51.972;4.450;2023-03-21T03:54:38;39.50;;;17.95;;
69835;SDS011;57132;51.972;4.450;2023-03-21T03:57:07;39.22;;;18.50;;
69835;SDS011;57132;51.972;4.450;2023-03-21T03:59:35;43.58;;;17.02;;
69835;SDS011;57132;51.972;4.450;2023-03-21T04:02:02;45.67;;;18.08;;
69835;SDS011;57132;51.972;4.450;2023-03-21T04:04:28;43.00;;;18.17;;
69835;SDS011;57132;51.972;4.450;2023-03-21T04:06:54;44.17;;;19.13;;
69835;SDS011;57132;51.972;4.450;2023-03-21T04:09:19;45.05;;;17.70;;
69835;SDS011;57132;51.972;4.450;2023-03-21T04:11:45;48.25;;;20.00;;
69835;SDS011;57132;51.972;4.450;2023-03-21T04:14:11;46.92;;;20.38;;
69835;SDS011;57132;51.972;4.450;2023-03-21T04:16:36;45.92;;;19.75;;
69835;SDS011;57132;51.972;4.450;2023-03-21T04:19:02;46.10;;;20.15;;
69835;SDS011;57132;51.972;4.450;2023-03-21T04:21:27;48.53;;;20.75;;
69835;SDS011;57132;51.972;4.450;2023-03-21T04:23:53;54.20;;;21.00;;
69835;SDS011;57132;51.972;4.450;2023-03-21T04:26:20;45.60;;;21.10;;
69835;SDS011;57132;51.972;4.450;2023-03-21T04:28:46;51.60;;;21.77;;
69835;SDS011;57132;51.972;4.450;2023-03-21T04:31:12;45.95;;;18.90;;
69835;SDS011;57132;51.972;4.450;2023-03-21T04:33:38;46.00;;;21.20;;
69835;SDS011;57132;51.972;4.450;2023-03-21T04:36:07;49.25;;;19.95;;
69835;SDS011;57132;51.972;4.450;2023-03-21T04:38:33;46.88;;;20.77;;
69835;SDS011;57132;51.972;4.450;2023-03-21T04:41:00;45.50;;;20.02;;
69835;SDS011;57132;51.972;4.450;2023-03-21T04:43:27;43.95;;;17.83;;
69835;SDS011;57132;51.972;4.450;2023-03-21T04:45:52;40.85;;;18.17;;
69835;SDS011;57132;51.972;4.450;2023-03-21T04:48:18;36.78;;;19.35;;
69835;SDS011;57132;51.972;4.450;2023-03-21T04:50:44;49.17;;;19.05;;
69835;SDS011;57132;51.972;4.450;2023-03-21T04:53:10;50.72;;;20.52;;
69835;SDS011;57132;51.972;4.450;2023-03-21T04:55:35;48.40;;;21.45;;
69835;SDS011;57132;51.972;4.450;2023-03-21T04:58:04;41.58;;;19.80;;
69835;SDS011;57132;51.972;4.450;2023-03-21T05:00:30;51.75;;;22.02;;
69835;SDS011;57132;51.972;4.450;2023-03-21T05:03:01;52.67;;;21.80;;
69835;SDS011;57132;51.972;4.450;2023-03-21T05:05:29;42.63;;;21.10;;
69835;SDS011;57132;51.972;4.450;2023-03-21T05:07:55;47.28;;;21.38;;
69835;SDS011;57132;51.972;4.450;2023-03-21T05:10:21;45.03;;;21.60;;
69835;SDS011;57132;51.972;4.450;2023-03-21T05:12:46;46.78;;;20.30;;
69835;SDS011;57132;51.972;4.450;2023-03-21T05:15:12;43.10;;;20.17;;
69835;SDS011;57132;51.972;4.450;2023-03-21T05:17:37;49.90;;;22.40;;
69835;SDS011;57132;51.972;4.450;2023-03-21T05:20:03;47.03;;;23.30;;
69835;SDS011;57132;51.972;4.450;2023-03-21T05:22:29;53.05;;;23.42;;
69835;SDS011;57132;51.972;4.450;2023-03-21T05:25:04;60.85;;;24.20;;
69835;SDS011;57132;51.972;4.450;2023-03-21T05:27:33;50.20;;;23.27;;
69835;SDS011;57132;51.972;4.450;2023-03-21T05:30:04;47.47;;;24.55;;
69835;SDS011;57132;51.972;4.450;2023-03-21T05:32:32;46.30;;;22.73;;
69835;SDS011;57132;51.972;4.450;2023-03-21T05:34:58;47.55;;;22.38;;
69835;SDS011;57132;51.972;4.450;2023-03-21T05:37:23;47.88;;;22.35;;
69835;SDS011;57132;51.972;4.450;2023-03-21T05:39:49;52.85;;;23.10;;
69835;SDS011;57132;51.972;4.450;2023-03-21T05:42:15;50.90;;;22.83;;
69835;SDS011;57132;51.972;4.450;2023-03-21T05:44:40;51.40;;;21.17;;
69835;SDS011;57132;51.972;4.450;2023-03-21T05:47:05;46.03;;;21.60;;
69835;SDS011;57132;51.972;4.450;2023-03-21T05:49:31;48.30;;;21.90;;
69835;SDS011;57132;51.972;4.450;2023-03-21T05:51:56;51.90;;;23.05;;
69835;SDS011;57132;51.972;4.450;2023-03-21T05:54:22;44.13;;;19.50;;
69835;SDS011;57132;51.972;4.450;2023-03-21T05:56:48;48.75;;;20.52;;
69835;SDS011;57132;51.972;4.450;2023-03-21T05:59:14;45.97;;;18.05;;
69835;SDS011;57132;51.972;4.450;2023-03-21T06:01:41;49.13;;;20.13;;
69835;SDS011;57132;51.972;4.450;2023-03-21T06:04:06;39.35;;;18.13;;
69835;SDS011;57132;51.972;4.450;2023-03-21T06:06:32;37.80;;;19.52;;
69835;SDS011;57132;51.972;4.450;2023-03-21T06:08:58;41.70;;;19.88;;
69835;SDS011;57132;51.972;4.450;2023-03-21T06:11:25;46.95;;;21.02;;
69835;SDS011;57132;51.972;4.450;2023-03-21T06:13:53;39.15;;;22.80;;
69835;SDS011;57132;51.972;4.450;2023-03-21T06:16:18;47.40;;;27.38;;
69835;SDS011;57132;51.972;4.450;2023-03-21T06:18:44;42.13;;;19.48;;
69835;SDS011;57132;51.972;4.450;2023-03-21T06:21:09;40.78;;;18.25;;
69835;SDS011;57132;51.972;4.450;2023-03-21T06:23:35;48.65;;;18.42;;
69835;SDS011;57132;51.972;4.450;2023-03-21T06:26:01;44.15;;;19.17;;
69835;SDS011;57132;51.972;4.450;2023-03-21T06:28:26;37.35;;;17.13;;
69835;SDS011;57132;51.972;4.450;2023-03-21T06:30:52;35.55;;;16.48;;
69835;SDS011;57132;51.972;4.450;2023-03-21T06:33:17;45.03;;;18.83;;
69835;SDS011;57132;51.972;4.450;2023-03-21T06:35:43;43.10;;;17.70;;
69835;SDS011;57132;51.972;4.450;2023-03-21T06:38:09;35.78;;;17.27;;
69835;SDS011;57132;51.972;4.450;2023-03-21T06:40:36;41.70;;;18.42;;
69835;SDS011;57132;51.972;4.450;2023-03-21T06:43:02;31.77;;;16.65;;
69835;SDS011;57132;51.972;4.450;2023-03-21T06:45:27;38.85;;;18.60;;
69835;SDS011;57132;51.972;4.450;2023-03-21T06:47:53;41.75;;;17.90;;
69835;SDS011;57132;51.972;4.450;2023-03-21T06:50:18;44.15;;;18.00;;
69835;SDS011;57132;51.972;4.450;2023-03-21T06:52:43;42.78;;;17.92;;
69835;SDS011;57132;51.972;4.450;2023-03-21T06:55:09;40.90;;;18.20;;
69835;SDS011;57132;51.972;4.450;2023-03-21T06:57:34;42.90;;;18.02;;
69835;SDS011;57132;51.972;4.450;2023-03-21T07:00:00;41.47;;;16.98;;
69835;SDS011;57132;51.972;4.450;2023-03-21T07:02:25;35.47;;;16.05;;
69835;SDS011;57132;51.972;4.450;2023-03-21T07:04:51;41.25;;;17.80;;
69835;SDS011;57132;51.972;4.450;2023-03-21T07:07:16;38.05;;;14.77;;
69835;SDS011;57132;51.972;4.450;2023-03-21T07:09:42;36.53;;;16.25;;
69835;SDS011;57132;51.972;4.450;2023-03-21T07:12:07;42.38;;;16.17;;
69835;SDS011;57132;51.972;4.450;2023-03-21T07:14:34;35.28;;;15.60;;
69835;SDS011;57132;51.972;4.450;2023-03-21T07:16:59;38.13;;;17.15;;
69835;SDS011;57132;51.972;4.450;2023-03-21T07:19:24;36.20;;;15.57;;
69835;SDS011;57132;51.972;4.450;2023-03-21T07:21:50;51.35;;;17.35;;
69835;SDS011;57132;51.972;4.450;2023-03-21T07:24:16;30.75;;;15.20;;
69835;SDS011;57132;51.972;4.450;2023-03-21T07:26:42;41.88;;;15.15;;
69835;SDS011;57132;51.972;4.450;2023-03-21T07:29:07;42.83;;;15.48;;
69835;SDS011;57132;51.972;4.450;2023-03-21T07:31:32;40.47;;;17.20;;
69835;SDS011;57132;51.972;4.450;2023-03-21T07:33:59;37.55;;;15.57;;
69835;SDS011;57132;51.972;4.450;2023-03-21T07:36:25;35.05;;;15.02;;
69835;SDS011;57132;51.972;4.450;2023-03-21T07:38:50;33.25;;;15.20;;
69835;SDS011;57132;51.972;4.450;2023-03-21T07:41:16;44.60;;;16.67;;
69835;SDS011;57132;51.972;4.450;2023-03-21T07:43:41;35.35;;;15.32;;
69835;SDS011;57132;51.972;4.450;2023-03-21T07:46:06;37.20;;;15.30;;
69835;SDS011;57132;51.972;4.450;2023-03-21T07:48:32;33.35;;;14.90;;
69835;SDS011;57132;51.972;4.450;2023-03-21T07:50:57;32.22;;;13.98;;
69835;SDS011;57132;51.972;4.450;2023-03-21T07:53:23;30.90;;;14.15;;
69835;SDS011;57132;51.972;4.450;2023-03-21T07:55:49;38.10;;;15.05;;
69835;SDS011;57132;51.972;4.450;2023-03-21T07:58:16;33.42;;;14.57;;
69835;SDS011;57132;51.972;4.450;2023-03-21T08:00:41;35.53;;;13.30;;
69835;SDS011;57132;51.972;4.450;2023-03-21T08:03:06;33.55;;;13.75;;
69835;SDS011;57132;51.972;4.450;2023-03-21T08:05:33;32.33;;;13.98;;
69835;SDS011;57132;51.972;4.450;2023-03-21T08:07:59;39.88;;;14.50;;
69835;SDS011;57132;51.972;4.450;2023-03-21T08:10:25;31.13;;;12.52;;
69835;SDS011;57132;51.972;4.450;2023-03-21T08:12:51;29.70;;;13.10;;
69835;SDS011;57132;51.972;4.450;2023-03-21T08:15:16;27.88;;;13.75;;
69835;SDS011;57132;51.972;4.450;2023-03-21T08:17:42;28.90;;;12.77;;
69835;SDS011;57132;51.972;4.450;2023-03-21T08:20:09;29.23;;;12.10;;
69835;SDS011;57132;51.972;4.450;2023-03-21T08:22:38;30.67;;;12.45;;
69835;SDS011;57132;51.972;4.450;2023-03-21T08:25:05;22.38;;;11.90;;
69835;SDS011;57132;51.972;4.450;2023-03-21T08:27:32;23.90;;;11.35;;
69835;SDS011;57132;51.972;4.450;2023-03-21T08:29:58;29.20;;;10.55;;
69835;SDS011;57132;51.972;4.450;2023-03-21T08:32:24;20.75;;;11.00;;
69835;SDS011;57132;51.972;4.450;2023-03-21T08:34:54;31.55;;;11.23;;
69835;SDS011;57132;51.972;4.450;2023-03-21T08:37:20;25.13;;;10.02;;
69835;SDS011;57132;51.972;4.450;2023-03-21T08:39:45;19.38;;;9.98;;
69835;SDS011;57132;51.972;4.450;2023-03-21T08:42:10;16.42;;;9.70;;
69835;SDS011;57132;51.972;4.450;2023-03-21T08:44:36;23.77;;;9.90;;
69835;SDS011;57132;51.972;4.450;2023-03-21T08:47:03;25.15;;;9.60;;
69835;SDS011;57132;51.972;4.450;2023-03-21T08:49:28;19.42;;;8.80;;
69835;SDS011;57132;51.972;4.450;2023-03-21T08:51:55;24.85;;;10.90;;
69835;SDS011;57132;51.972;4.450;2023-03-21T08:54:20;19.52;;;9.65;;
69835;SDS011;57132;51.972;4.450;2023-03-21T08:56:47;25.77;;;10.20;;
69835;SDS011;57132;51.972;4.450;2023-03-21T08:59:12;24.92;;;10.38;;
69835;SDS011;57132;51.972;4.450;2023-03-21T09:01:39;19.98;;;9.70;;
69835;SDS011;57132;51.972;4.450;2023-03-21T09:04:05;26.20;;;10.32;;
69835;SDS011;57132;51.972;4.450;2023-03-21T09:06:34;20.20;;;9.57;;
69835;SDS011;57132;51.972;4.450;2023-03-21T09:09:00;22.88;;;11.43;;
69835;SDS011;57132;51.972;4.450;2023-03-21T09:11:25;31.25;;;11.73;;
69835;SDS011;57132;51.972;4.450;2023-03-21T09:13:51;21.73;;;11.80;;
69835;SDS011;57132;51.972;4.450;2023-03-21T09:16:16;26.20;;;12.00;;
69835;SDS011;57132;51.972;4.450;2023-03-21T09:18:41;29.88;;;12.95;;
69835;SDS011;57132;51.972;4.450;2023-03-21T09:21:13;21.10;;;12.13;;
69835;SDS011;57132;51.972;4.450;2023-03-21T09:23:40;26.42;;;11.98;;
69835;SDS011;57132;51.972;4.450;2023-03-21T09:26:07;27.63;;;12.73;;
69835;SDS011;57132;51.972;4.450;2023-03-21T09:28:34;28.10;;;12.65;;
69835;SDS011;57132;51.972;4.450;2023-03-21T09:31:01;24.40;;;13.18;;
69835;SDS011;57132;51.972;4.450;2023-03-21T09:33:28;25.58;;;13.60;;
69835;SDS011;57132;51.972;4.450;2023-03-21T09:35:54;26.30;;;12.65;;
69835;SDS011;57132;51.972;4.450;2023-03-21T09:38:20;23.88;;;13.65;;
69835;SDS011;57132;51.972;4.450;2023-03-21T09:46:35;26.98;;;13.02;;
69835;SDS011;57132;51.972;4.450;2023-03-21T09:49:14;24.55;;;12.95;;
69835;SDS011;57132;51.972;4.450;2023-03-21T09:51:43;29.65;;;12.45;;
69835;SDS011;57132;51.972;4.450;2023-03-21T09:54:16;29.38;;;13.63;;
69835;SDS011;57132;51.972;4.450;2023-03-21T09:56:46;24.85;;;12.30;;
69835;SDS011;57132;51.972;4.450;2023-03-21T09:59:23;33.28;;;13.48;;
69835;SDS011;57132;51.972;4.450;2023-03-21T10:01:56;24.98;;;11.95;;
69835;SDS011;57132;51.972;4.450;2023-03-21T10:04:24;24.30;;;11.65;;
69835;SDS011;57132;51.972;4.450;2023-03-21T10:06:58;26.92;;;12.07;;
69835;SDS011;57132;51.972;4.450;2023-03-21T10:09:26;25.55;;;12.23;;
69835;SDS011;57132;51.972;4.450;2023-03-21T10:14:29;25.55;;;11.60;;
69835;SDS011;57132;51.972;4.450;2023-03-21T10:22:54;26.30;;;12.23;;
69835;SDS011;57132;51.972;4.450;2023-03-21T10:25:21;25.83;;;11.85;;
69835;SDS011;57132;51.972;4.450;2023-03-21T10:27:52;24.30;;;12.15;;
69835;SDS011;57132;51.972;4.450;2023-03-21T10:30:24;26.10;;;12.32;;
69835;SDS011;57132;51.972;4.450;2023-03-21T10:32:55;22.70;;;12.38;;
69835;SDS011;57132;51.972;4.450;2023-03-21T10:35:23;28.05;;;12.85;;
69835;SDS011;57132;51.972;4.450;2023-03-21T10:37:49;23.23;;;13.73;;
69835;SDS011;57132;51.972;4.450;2023-03-21T10:40:17;28.92;;;12.98;;
69835;SDS011;57132;51.972;4.450;2023-03-21T10:42:43;29.70;;;14.32;;
69835;SDS011;57132;51.972;4.450;2023-03-21T10:45:13;26.45;;;13.07;;
69835;SDS011;57132;51.972;4.450;2023-03-21T10:47:42;26.10;;;12.77;;
69835;SDS011;57132;51.972;4.450;2023-03-21T10:50:13;27.98;;;14.88;;
69835;SDS011;57132;51.972;4.450;2023-03-21T10:52:44;32.08;;;15.80;;
69835;SDS011;57132;51.972;4.450;2023-03-21T10:57:40;38.47;;;16.00;;
69835;SDS011;57132;51.972;4.450;2023-03-21T11:00:06;35.78;;;15.88;;
69835;SDS011;57132;51.972;4.450;2023-03-21T11:05:07;34.75;;;14.93;;
69835;SDS011;57132;51.972;4.450;2023-03-21T11:10:35;28.75;;;14.02;;
69835;SDS011;57132;51.972;4.450;2023-03-21T11:13:25;29.85;;;16.50;;
69835;SDS011;57132;51.972;4.450;2023-03-21T11:15:57;31.70;;;13.70;;
69835;SDS011;57132;51.972;4.450;2023-03-21T11:18:30;23.13;;;13.82;;
69835;SDS011;57132;51.972;4.450;2023-03-21T11:20:58;32.25;;;14.68;;
69835;SDS011;57132;51.972;4.450;2023-03-21T11:23:30;20.85;;;12.77;;
69835;SDS011;57132;51.972;4.450;2023-03-21T11:25:59;26.42;;;13.82;;
69835;SDS011;57132;51.972;4.450;2023-03-21T11:28:31;23.83;;;12.35;;
69835;SDS011;57132;51.972;4.450;2023-03-21T11:31:01;27.35;;;12.80;;
69835;SDS011;57132;51.972;4.450;2023-03-21T11:33:33;28.33;;;13.55;;
69835;SDS011;57132;51.972;4.450;2023-03-21T11:36:03;27.30;;;11.98;;
69835;SDS011;57132;51.972;4.450;2023-03-21T11:38:31;25.35;;;10.13;;
69835;SDS011;57132;51.972;4.450;2023-03-21T11:41:00;19.77;;;9.55;;
69835;SDS011;57132;51.972;4.450;2023-03-21T11:43:28;22.25;;;9.15;;
69835;SDS011;57132;51.972;4.450;2023-03-21T11:46:01;18.73;;;10.25;;
69835;SDS011;57132;51.972;4.450;2023-03-21T11:48:39;19.48;;;10.93;;
69835;SDS011;57132;51.972;4.450;2023-03-21T11:51:33;20.80;;;11.23;;
69835;SDS011;57132;51.972;4.450;2023-03-21T11:56:59;21.67;;;9.85;;
69835;SDS011;57132;51.972;4.450;2023-03-21T11:59:41;22.52;;;10.65;;
69835;SDS011;57132;51.972;4.450;2023-03-21T12:07:46;17.55;;;8.52;;
69835;SDS011;57132;51.972;4.450;2023-03-21T12:10:37;22.98;;;11.85;;
69835;SDS011;57132;51.972;4.450;2023-03-21T12:23:54;15.77;;;8.33;;
69835;SDS011;57132;51.972;4.450;2023-03-21T12:38:13;22.38;;;10.75;;
69835;SDS011;57132;51.972;4.450;2023-03-21T12:49:02;18.42;;;8.77;;
69835;SDS011;57132;51.972;4.450;2023-03-21T12:51:35;22.15;;;10.35;;
69835;SDS011;57132;51.972;4.450;2023-03-21T12:57:09;17.95;;;10.52;;
69835;SDS011;57132;51.972;4.450;2023-03-21T13:04:48;20.30;;;11.00;;
69835;SDS011;57132;51.972;4.450;2023-03-21T13:07:21;19.70;;;10.85;;
69835;SDS011;57132;51.972;4.450;2023-03-21T13:09:49;18.77;;;10.98;;
69835;SDS011;57132;51.972;4.450;2023-03-21T13:14:53;26.23;;;11.88;;
69835;SDS011;57132;51.972;4.450;2023-03-21T13:17:26;17.60;;;11.05;;
69835;SDS011;57132;51.972;4.450;2023-03-21T13:20:08;20.58;;;12.18;;
69835;SDS011;57132;51.972;4.450;2023-03-21T13:22:44;18.80;;;10.93;;
69835;SDS011;57132;51.972;4.450;2023-03-21T13:25:20;18.55;;;11.50;;
69835;SDS011;57132;51.972;4.450;2023-03-21T13:27:53;17.60;;;10.73;;
69835;SDS011;57132;51.972;4.450;2023-03-21T13:30:25;19.85;;;12.20;;
69835;SDS011;57132;51.972;4.450;2023-03-21T13:35:39;15.18;;;10.57;;
69835;SDS011;57132;51.972;4.450;2023-03-21T13:38:15;26.00;;;12.07;;
69835;SDS011;57132;51.972;4.450;2023-03-21T13:53:58;19.77;;;11.48;;
69835;SDS011;57132;51.972;4.450;2023-03-21T13:56:25;25.13;;;11.30;;
69835;SDS011;57132;51.972;4.450;2023-03-21T13:58:57;21.13;;;11.90;;
69835;SDS011;57132;51.972;4.450;2023-03-21T14:03:58;19.75;;;10.52;;
69835;SDS011;57132;51.972;4.450;2023-03-21T14:11:54;15.88;;;8.70;;
69835;SDS011;57132;51.972;4.450;2023-03-21T14:14:22;21.33;;;10.60;;
69835;SDS011;57132;51.972;4.450;2023-03-21T14:16:53;20.60;;;11.18;;
69835;SDS011;57132;51.972;4.450;2023-03-21T14:19:19;20.70;;;11.90;;
69835;SDS011;57132;51.972;4.450;2023-03-21T14:21:45;18.65;;;11.40;;
69835;SDS011;57132;51.972;4.450;2023-03-21T14:24:16;18.73;;;12.38;;
69835;SDS011;57132;51.972;4.450;2023-03-21T14:26:43;21.40;;;11.18;;
69835;SDS011;57132;51.972;4.450;2023-03-21T14:29:16;20.27;;;11.07;;
69835;SDS011;57132;51.972;4.450;2023-03-21T14:31:46;15.97;;;10.57;;
69835;SDS011;57132;51.972;4.450;2023-03-21T14:34:12;21.15;;;10.75;;
69835;SDS011;57132;51.972;4.450;2023-03-21T14:36:39;18.00;;;10.07;;
69835;SDS011;57132;51.972;4.450;2023-03-21T14:41:31;20.33;;;10.57;;
69835;SDS011;57132;51.972;4.450;2023-03-21T14:44:12;18.27;;;9.35;;
69835;SDS011;57132;51.972;4.450;2023-03-21T14:46:41;15.93;;;9.57;;
69835;SDS011;57132;51.972;4.450;2023-03-21T14:52:02;14.68;;;7.15;;
69835;SDS011;57132;51.972;4.450;2023-03-21T14:54:30;10.10;;;6.53;;
69835;SDS011;57132;51.972;4.450;2023-03-21T14:56:59;10.20;;;6.47;;
69835;SDS011;57132;51.972;4.450;2023-03-21T14:59:28;13.82;;;7.32;;
69835;SDS011;57132;51.972;4.450;2023-03-21T15:01:58;13.73;;;8.80;;
69835;SDS011;57132;51.972;4.450;2023-03-21T15:04:27;14.85;;;8.48;;
69835;SDS011;57132;51.972;4.450;2023-03-21T15:06:58;10.07;;;7.35;;
69835;SDS011;57132;51.972;4.450;2023-03-21T15:09:27;13.30;;;7.60;;
69835;SDS011;57132;51.972;4.450;2023-03-21T15:11:54;11.68;;;7.68;;
69835;SDS011;57132;51.972;4.450;2023-03-21T15:14:23;16.25;;;8.98;;
69835;SDS011;57132;51.972;4.450;2023-03-21T15:16:52;18.50;;;11.27;;
69835;SDS011;57132;51.972;4.450;2023-03-21T15:19:22;15.68;;;8.30;;
69835;SDS011;57132;51.972;4.450;2023-03-21T15:21:52;15.50;;;9.15;;
69835;SDS011;57132;51.972;4.450;2023-03-21T15:24:27;11.23;;;6.50;;
69835;SDS011;57132;51.972;4.450;2023-03-21T15:26:58;10.35;;;6.35;;
69835;SDS011;57132;51.972;4.450;2023-03-21T15:29:29;9.30;;;6.35;;
69835;SDS011;57132;51.972;4.450;2023-03-21T15:31:58;13.07;;;5.03;;
69835;SDS011;57132;51.972;4.450;2023-03-21T15:34:27;9.55;;;5.50;;
69835;SDS011;57132;51.972;4.450;2023-03-21T15:37:04;10.07;;;6.28;;
69835;SDS011;57132;51.972;4.450;2023-03-21T15:39:30;11.35;;;5.97;;
69835;SDS011;57132;51.972;4.450;2023-03-21T15:42:01;8.75;;;6.05;;
69835;SDS011;57132;51.972;4.450;2023-03-21T15:44:54;10.15;;;6.13;;
69835;SDS011;57132;51.972;4.450;2023-03-21T15:50:20;12.05;;;6.20;;
69835;SDS011;57132;51.972;4.450;2023-03-21T15:52:47;10.25;;;6.53;;
69835;SDS011;57132;51.972;4.450;2023-03-21T15:55:21;9.95;;;6.15;;
69835;SDS011;57132;51.972;4.450;2023-03-21T15:57:58;12.60;;;6.65;;
69835;SDS011;57132;51.972;4.450;2023-03-21T16:00:40;15.10;;;6.88;;
69835;SDS011;57132;51.972;4.450;2023-03-21T16:03:18;13.57;;;6.85;;
69835;SDS011;57132;51.972;4.450;2023-03-21T16:08:32;9.02;;;5.88;;
69835;SDS011;57132;51.972;4.450;2023-03-21T16:11:16;8.68;;;5.63;;
69835;SDS011;57132;51.972;4.450;2023-03-21T16:13:47;12.52;;;6.15;;
69835;SDS011;57132;51.972;4.450;2023-03-21T16:16:17;17.42;;;7.00;;
69835;SDS011;57132;51.972;4.450;2023-03-21T16:18:45;14.73;;;6.00;;
69835;SDS011;57132;51.972;4.450;2023-03-21T16:21:11;11.70;;;6.30;;
69835;SDS011;57132;51.972;4.450;2023-03-21T16:23:37;16.35;;;9.25;;
69835;SDS011;57132;51.972;4.450;2023-03-21T16:26:03;11.27;;;8.50;;
69835;SDS011;57132;51.972;4.450;2023-03-21T16:28:29;9.38;;;6.22;;
69835;SDS011;57132;51.972;4.450;2023-03-21T16:30:55;12.93;;;6.07;;
69835;SDS011;57132;51.972;4.450;2023-03-21T16:33:20;7.53;;;5.70;;
69835;SDS011;57132;51.972;4.450;2023-03-21T16:35:46;14.05;;;6.07;;
69835;SDS011;57132;51.972;4.450;2023-03-21T16:38:11;10.95;;;6.20;;
69835;SDS011;57132;51.972;4.450;2023-03-21T16:40:38;8.50;;;5.38;;
69835;SDS011;57132;51.972;4.450;2023-03-21T16:43:06;10.90;;;6.07;;
69835;SDS011;57132;51.972;4.450;2023-03-21T16:45:32;10.57;;;5.85;;
69835;SDS011;57132;51.972;4.450;2023-03-21T16:47:57;6.75;;;3.97;;
69835;SDS011;57132;51.972;4.450;2023-03-21T16:50:28;13.27;;;3.90;;
69835;SDS011;57132;51.972;4.450;2023-03-21T16:52:55;9.23;;;2.70;;
69835;SDS011;57132;51.972;4.450;2023-03-21T16:55:21;11.18;;;2.65;;